Terminal Aerodrome Forecast
Issued by NWS

Home | Current Version | Previous Version | Text Only | Print | Product List | Glossary On
Versions: 1 2 3 4 5 6 7 8 9 10 11 12 13 14 15 16 17 18 19 20 21 22 23
423
FTUS45 KRIW 241140
TAFCOD
TAF
KCOD 241140Z 2412/2512 01010KT P6SM SCT025 OVC080
     FM241800 36012G22KT P6SM VCSH BKN016 OVC025
     FM250300 31007KT P6SM VCSH SCT012 OVC025
     FM250700 VRB04KT P6SM VCSH SCT020 OVC040
      AMD LTD TO CLD VIS AND WIND=

USA.gov is the U.S. government's official web portal to all federal, state and local government web resources and services.